sensor_id;sensor_type;location;lat;lon;timestamp;P1;durP1;ratioP1;P2;durP2;ratioP2
65035;SDS011;51603;49.300;8.880;2024-03-23T00:53:11;14.23;;;12.83;;
65035;SDS011;51603;49.300;8.880;2024-03-23T00:55:37;14.20;;;12.33;;
65035;SDS011;51603;49.300;8.880;2024-03-23T00:58:03;16.73;;;13.23;;
65035;SDS011;51603;49.300;8.880;2024-03-23T01:00:28;13.87;;;12.23;;
65035;SDS011;51603;49.300;8.880;2024-03-23T01:02:54;15.13;;;13.53;;
65035;SDS011;51603;49.300;8.880;2024-03-23T01:05:20;15.50;;;14.00;;
65035;SDS011;51603;49.300;8.880;2024-03-23T01:07:45;15.27;;;13.77;;
65035;SDS011;51603;49.300;8.880;2024-03-23T01:10:11;14.27;;;12.97;;
65035;SDS011;51603;49.300;8.880;2024-03-23T01:12:36;14.10;;;12.70;;
65035;SDS011;51603;49.300;8.880;2024-03-23T01:15:02;14.33;;;12.83;;
65035;SDS011;51603;49.300;8.880;2024-03-23T01:17:27;17.03;;;14.23;;
65035;SDS011;51603;49.300;8.880;2024-03-23T01:19:53;14.30;;;12.90;;
65035;SDS011;51603;49.300;8.880;2024-03-23T01:22:18;18.23;;;15.00;;
65035;SDS011;51603;49.300;8.880;2024-03-23T01:24:44;15.10;;;11.97;;
65035;SDS011;51603;49.300;8.880;2024-03-23T01:27:09;14.20;;;12.80;;
65035;SDS011;51603;49.300;8.880;2024-03-23T01:29:35;13.70;;;12.30;;
65035;SDS011;51603;49.300;8.880;2024-03-23T01:32:00;13.13;;;11.60;;
65035;SDS011;51603;49.300;8.880;2024-03-23T01:34:26;14.63;;;12.70;;
65035;SDS011;51603;49.300;8.880;2024-03-23T01:36:52;14.23;;;12.60;;
65035;SDS011;51603;49.300;8.880;2024-03-23T01:39:18;14.20;;;12.73;;
65035;SDS011;51603;49.300;8.880;2024-03-23T01:41:43;15.07;;;13.47;;
65035;SDS011;51603;49.300;8.880;2024-03-23T01:44:09;13.53;;;12.23;;
65035;SDS011;51603;49.300;8.880;2024-03-23T01:46:35;14.43;;;12.23;;
65035;SDS011;51603;49.300;8.880;2024-03-23T01:49:02;13.60;;;12.20;;
65035;SDS011;51603;49.300;8.880;2024-03-23T01:51:31;13.63;;;12.40;;
65035;SDS011;51603;49.300;8.880;2024-03-23T01:53:58;15.30;;;13.60;;
65035;SDS011;51603;49.300;8.880;2024-03-23T01:56:27;13.63;;;12.23;;
65035;SDS011;51603;49.300;8.880;2024-03-23T01:58:53;15.43;;;13.83;;
65035;SDS011;51603;49.300;8.880;2024-03-23T02:01:19;17.30;;;14.73;;
65035;SDS011;51603;49.300;8.880;2024-03-23T02:03:45;16.50;;;14.80;;
65035;SDS011;51603;49.300;8.880;2024-03-23T02:06:11;14.77;;;13.27;;
65035;SDS011;51603;49.300;8.880;2024-03-23T02:08:36;15.53;;;13.83;;
65035;SDS011;51603;49.300;8.880;2024-03-23T02:11:02;16.00;;;14.23;;
65035;SDS011;51603;49.300;8.880;2024-03-23T02:13:27;18.13;;;13.63;;
65035;SDS011;51603;49.300;8.880;2024-03-23T02:15:53;12.33;;;11.10;;
65035;SDS011;51603;49.300;8.880;2024-03-23T02:18:19;12.37;;;9.10;;
65035;SDS011;51603;49.300;8.880;2024-03-23T02:20:44;12.33;;;8.30;;
65035;SDS011;51603;49.300;8.880;2024-03-23T02:23:13;10.23;;;8.33;;
65035;SDS011;51603;49.300;8.880;2024-03-23T02:25:40;7.80;;;7.10;;
65035;SDS011;51603;49.300;8.880;2024-03-23T02:28:05;7.70;;;7.00;;
65035;SDS011;51603;49.300;8.880;2024-03-23T02:30:31;8.03;;;7.23;;
65035;SDS011;51603;49.300;8.880;2024-03-23T02:32:56;9.17;;;7.93;;
65035;SDS011;51603;49.300;8.880;2024-03-23T02:35:22;7.33;;;6.27;;
65035;SDS011;51603;49.300;8.880;2024-03-23T02:37:47;7.13;;;6.33;;
65035;SDS011;51603;49.300;8.880;2024-03-23T02:40:14;7.00;;;6.30;;
65035;SDS011;51603;49.300;8.880;2024-03-23T02:42:40;7.47;;;6.17;;
65035;SDS011;51603;49.300;8.880;2024-03-23T02:45:06;6.20;;;5.60;;
65035;SDS011;51603;49.300;8.880;2024-03-23T02:47:32;8.73;;;5.57;;
65035;SDS011;51603;49.300;8.880;2024-03-23T02:49:57;6.77;;;5.53;;
65035;SDS011;51603;49.300;8.880;2024-03-23T02:52:23;6.00;;;5.40;;
65035;SDS011;51603;49.300;8.880;2024-03-23T02:54:48;7.60;;;6.03;;
65035;SDS011;51603;49.300;8.880;2024-03-23T02:57:14;8.23;;;5.70;;
65035;SDS011;51603;49.300;8.880;2024-03-23T02:59:40;6.33;;;5.40;;
65035;SDS011;51603;49.300;8.880;2024-03-23T03:02:06;9.53;;;4.60;;
65035;SDS011;51603;49.300;8.880;2024-03-23T03:04:31;7.67;;;5.30;;
65035;SDS011;51603;49.300;8.880;2024-03-23T03:06:57;7.40;;;6.07;;
65035;SDS011;51603;49.300;8.880;2024-03-23T03:09:22;7.77;;;5.10;;
65035;SDS011;51603;49.300;8.880;2024-03-23T03:11:48;10.07;;;5.93;;
65035;SDS011;51603;49.300;8.880;2024-03-23T03:14:13;7.53;;;6.40;;
65035;SDS011;51603;49.300;8.880;2024-03-23T03:16:39;9.13;;;6.90;;
65035;SDS011;51603;49.300;8.880;2024-03-23T03:19:04;9.47;;;6.80;;
65035;SDS011;51603;49.300;8.880;2024-03-23T03:21:31;6.63;;;5.97;;
65035;SDS011;51603;49.300;8.880;2024-03-23T03:23:57;7.10;;;6.40;;
65035;SDS011;51603;49.300;8.880;2024-03-23T03:26:23;8.80;;;6.30;;
65035;SDS011;51603;49.300;8.880;2024-03-23T03:28:49;8.50;;;6.83;;
65035;SDS011;51603;49.300;8.880;2024-03-23T03:31:16;7.23;;;6.27;;
65035;SDS011;51603;49.300;8.880;2024-03-23T03:33:42;9.07;;;7.80;;
65035;SDS011;51603;49.300;8.880;2024-03-23T03:36:08;9.17;;;8.13;;
65035;SDS011;51603;49.300;8.880;2024-03-23T03:38:33;11.50;;;6.63;;
65035;SDS011;51603;49.300;8.880;2024-03-23T03:41:00;7.07;;;6.33;;
65035;SDS011;51603;49.300;8.880;2024-03-23T03:43:26;8.63;;;7.30;;
65035;SDS011;51603;49.300;8.880;2024-03-23T03:45:52;9.93;;;8.20;;
65035;SDS011;51603;49.300;8.880;2024-03-23T03:48:18;8.97;;;7.80;;
65035;SDS011;51603;49.300;8.880;2024-03-23T03:50:44;12.97;;;11.70;;
65035;SDS011;51603;49.300;8.880;2024-03-23T03:53:10;10.10;;;7.83;;
65035;SDS011;51603;49.300;8.880;2024-03-23T03:55:36;10.47;;;8.10;;
65035;SDS011;51603;49.300;8.880;2024-03-23T03:58:01;10.80;;;8.43;;
65035;SDS011;51603;49.300;8.880;2024-03-23T04:00:27;13.40;;;8.93;;
65035;SDS011;51603;49.300;8.880;2024-03-23T04:02:53;10.33;;;7.73;;
65035;SDS011;51603;49.300;8.880;2024-03-23T04:05:18;10.57;;;8.90;;
65035;SDS011;51603;49.300;8.880;2024-03-23T04:07:44;10.40;;;9.40;;
65035;SDS011;51603;49.300;8.880;2024-03-23T04:10:10;10.93;;;9.07;;
65035;SDS011;51603;49.300;8.880;2024-03-23T04:12:36;14.73;;;9.10;;
65035;SDS011;51603;49.300;8.880;2024-03-23T04:15:02;11.33;;;8.60;;
65035;SDS011;51603;49.300;8.880;2024-03-23T04:17:29;10.23;;;9.03;;
65035;SDS011;51603;49.300;8.880;2024-03-23T04:19:57;11.23;;;10.10;;
65035;SDS011;51603;49.300;8.880;2024-03-23T04:22:23;14.73;;;10.50;;
65035;SDS011;51603;49.300;8.880;2024-03-23T04:24:51;11.40;;;9.17;;
65035;SDS011;51603;49.300;8.880;2024-03-23T04:27:20;11.10;;;10.00;;
65035;SDS011;51603;49.300;8.880;2024-03-23T04:29:52;11.20;;;10.07;;
65035;SDS011;51603;49.300;8.880;2024-03-23T04:32:20;12.40;;;10.37;;
65035;SDS011;51603;49.300;8.880;2024-03-23T04:34:46;11.83;;;9.83;;
65035;SDS011;51603;49.300;8.880;2024-03-23T04:37:11;13.90;;;10.67;;
65035;SDS011;51603;49.300;8.880;2024-03-23T04:39:37;11.77;;;10.47;;
65035;SDS011;51603;49.300;8.880;2024-03-23T04:42:03;10.63;;;9.33;;
65035;SDS011;51603;49.300;8.880;2024-03-23T04:44:29;14.20;;;10.17;;
65035;SDS011;51603;49.300;8.880;2024-03-23T04:46:54;13.10;;;11.23;;
65035;SDS011;51603;49.300;8.880;2024-03-23T04:49:20;13.77;;;11.37;;
65035;SDS011;51603;49.300;8.880;2024-03-23T04:51:45;14.77;;;10.23;;
65035;SDS011;51603;49.300;8.880;2024-03-23T04:54:14;16.17;;;11.53;;
65035;SDS011;51603;49.300;8.880;2024-03-23T04:56:40;12.30;;;10.70;;
65035;SDS011;51603;49.300;8.880;2024-03-23T04:59:05;13.20;;;10.10;;
65035;SDS011;51603;49.300;8.880;2024-03-23T05:01:31;12.70;;;9.53;;
65035;SDS011;51603;49.300;8.880;2024-03-23T05:03:57;11.43;;;10.20;;
65035;SDS011;51603;49.300;8.880;2024-03-23T05:06:23;11.97;;;10.33;;
65035;SDS011;51603;49.300;8.880;2024-03-23T05:08:49;14.43;;;10.53;;
65035;SDS011;51603;49.300;8.880;2024-03-23T05:11:14;12.97;;;10.40;;
65035;SDS011;51603;49.300;8.880;2024-03-23T05:13:40;13.10;;;10.47;;
65035;SDS011;51603;49.300;8.880;2024-03-23T05:16:06;14.90;;;9.47;;
65035;SDS011;51603;49.300;8.880;2024-03-23T05:18:33;9.70;;;8.37;;
65035;SDS011;51603;49.300;8.880;2024-03-23T05:20:59;10.60;;;9.23;;
65035;SDS011;51603;49.300;8.880;2024-03-23T05:23:24;9.63;;;8.13;;
65035;SDS011;51603;49.300;8.880;2024-03-23T05:25:50;8.73;;;7.67;;
65035;SDS011;51603;49.300;8.880;2024-03-23T05:28:19;10.50;;;7.93;;
65035;SDS011;51603;49.300;8.880;2024-03-23T05:30:54;8.70;;;7.20;;
65035;SDS011;51603;49.300;8.880;2024-03-23T05:33:20;9.70;;;6.97;;
65035;SDS011;51603;49.300;8.880;2024-03-23T05:35:46;7.53;;;6.40;;
65035;SDS011;51603;49.300;8.880;2024-03-23T05:38:12;6.87;;;5.90;;
65035;SDS011;51603;49.300;8.880;2024-03-23T05:40:38;7.60;;;5.83;;
65035;SDS011;51603;49.300;8.880;2024-03-23T05:43:05;6.47;;;5.37;;
65035;SDS011;51603;49.300;8.880;2024-03-23T05:45:31;7.50;;;6.33;;
65035;SDS011;51603;49.300;8.880;2024-03-23T05:47:57;7.67;;;6.53;;
65035;SDS011;51603;49.300;8.880;2024-03-23T05:50:23;8.43;;;5.87;;
65035;SDS011;51603;49.300;8.880;2024-03-23T05:52:49;9.93;;;7.10;;
65035;SDS011;51603;49.300;8.880;2024-03-23T05:55:14;7.33;;;6.03;;
65035;SDS011;51603;49.300;8.880;2024-03-23T05:57:40;7.07;;;6.37;;
65035;SDS011;51603;49.300;8.880;2024-03-23T06:00:06;4.83;;;4.10;;
65035;SDS011;51603;49.300;8.880;2024-03-23T06:02:35;4.33;;;3.93;;
65035;SDS011;51603;49.300;8.880;2024-03-23T06:05:01;4.40;;;3.63;;
65035;SDS011;51603;49.300;8.880;2024-03-23T06:07:27;4.00;;;3.60;;
65035;SDS011;51603;49.300;8.880;2024-03-23T06:09:52;3.10;;;2.23;;
65035;SDS011;51603;49.300;8.880;2024-03-23T06:12:18;3.53;;;2.83;;
65035;SDS011;51603;49.300;8.880;2024-03-23T06:14:43;6.53;;;4.37;;
65035;SDS011;51603;49.300;8.880;2024-03-23T06:17:09;4.90;;;4.50;;
65035;SDS011;51603;49.300;8.880;2024-03-23T06:19:34;4.53;;;4.13;;
65035;SDS011;51603;49.300;8.880;2024-03-23T06:22:00;5.03;;;4.53;;
65035;SDS011;51603;49.300;8.880;2024-03-23T06:24:25;4.47;;;4.00;;
65035;SDS011;51603;49.300;8.880;2024-03-23T06:26:51;5.20;;;4.67;;
65035;SDS011;51603;49.300;8.880;2024-03-23T06:29:16;4.70;;;4.30;;
65035;SDS011;51603;49.300;8.880;2024-03-23T06:31:42;4.63;;;4.10;;
65035;SDS011;51603;49.300;8.880;2024-03-23T06:34:07;4.90;;;4.50;;
65035;SDS011;51603;49.300;8.880;2024-03-23T06:36:33;7.03;;;4.97;;
65035;SDS011;51603;49.300;8.880;2024-03-23T06:38:59;4.50;;;3.90;;
65035;SDS011;51603;49.300;8.880;2024-03-23T06:41:24;6.93;;;4.40;;
65035;SDS011;51603;49.300;8.880;2024-03-23T06:43:51;4.53;;;3.60;;
65035;SDS011;51603;49.300;8.880;2024-03-23T06:46:16;4.03;;;3.50;;
65035;SDS011;51603;49.300;8.880;2024-03-23T06:48:42;4.23;;;3.27;;
65035;SDS011;51603;49.300;8.880;2024-03-23T06:51:10;3.10;;;2.13;;
65035;SDS011;51603;49.300;8.880;2024-03-23T06:53:35;2.33;;;2.03;;
65035;SDS011;51603;49.300;8.880;2024-03-23T06:56:01;4.43;;;2.67;;
65035;SDS011;51603;49.300;8.880;2024-03-23T06:58:26;2.30;;;1.73;;
65035;SDS011;51603;49.300;8.880;2024-03-23T07:00:52;4.70;;;2.10;;
65035;SDS011;51603;49.300;8.880;2024-03-23T07:03:17;1.63;;;1.30;;
65035;SDS011;51603;49.300;8.880;2024-03-23T07:05:43;2.10;;;1.67;;
65035;SDS011;51603;49.300;8.880;2024-03-23T07:08:08;2.53;;;1.27;;
65035;SDS011;51603;49.300;8.880;2024-03-23T07:10:34;1.60;;;1.07;;
65035;SDS011;51603;49.300;8.880;2024-03-23T07:13:00;1.27;;;1.10;;
65035;SDS011;51603;49.300;8.880;2024-03-23T07:15:26;2.93;;;1.50;;
65035;SDS011;51603;49.300;8.880;2024-03-23T07:17:51;1.00;;;0.90;;
65035;SDS011;51603;49.300;8.880;2024-03-23T07:20:17;1.77;;;0.80;;
65035;SDS011;51603;49.300;8.880;2024-03-23T07:22:45;1.90;;;0.80;;
65035;SDS011;51603;49.300;8.880;2024-03-23T07:25:11;1.60;;;1.20;;
65035;SDS011;51603;49.300;8.880;2024-03-23T07:27:36;1.20;;;1.00;;
65035;SDS011;51603;49.300;8.880;2024-03-23T07:30:02;1.20;;;0.93;;
65035;SDS011;51603;49.300;8.880;2024-03-23T07:32:27;1.20;;;1.00;;
65035;SDS011;51603;49.300;8.880;2024-03-23T07:34:53;1.50;;;1.27;;
65035;SDS011;51603;49.300;8.880;2024-03-23T07:37:18;1.00;;;0.53;;
65035;SDS011;51603;49.300;8.880;2024-03-23T07:39:44;0.80;;;0.60;;
65035;SDS011;51603;49.300;8.880;2024-03-23T07:42:09;1.00;;;0.70;;
65035;SDS011;51603;49.300;8.880;2024-03-23T07:44:35;2.40;;;0.90;;
65035;SDS011;51603;49.300;8.880;2024-03-23T07:47:00;1.00;;;0.57;;
65035;SDS011;51603;49.300;8.880;2024-03-23T07:49:26;1.37;;;0.40;;
65035;SDS011;51603;49.300;8.880;2024-03-23T07:51:52;1.77;;;0.50;;
65035;SDS011;51603;49.300;8.880;2024-03-23T07:54:17;1.17;;;0.53;;
65035;SDS011;51603;49.300;8.880;2024-03-23T07:56:43;1.87;;;0.90;;
65035;SDS011;51603;49.300;8.880;2024-03-23T07:59:09;1.13;;;0.80;;
65035;SDS011;51603;49.300;8.880;2024-03-23T08:01:34;1.97;;;0.57;;
65035;SDS011;51603;49.300;8.880;2024-03-23T08:04:00;0.83;;;0.53;;
65035;SDS011;51603;49.300;8.880;2024-03-23T08:06:26;3.57;;;0.60;;
65035;SDS011;51603;49.300;8.880;2024-03-23T08:08:52;2.30;;;0.80;;
65035;SDS011;51603;49.300;8.880;2024-03-23T08:11:33;1.63;;;0.70;;
65035;SDS011;51603;49.300;8.880;2024-03-23T08:13:59;4.20;;;1.20;;
65035;SDS011;51603;49.300;8.880;2024-03-23T08:16:26;5.03;;;1.50;;
65035;SDS011;51603;49.300;8.880;2024-03-23T08:18:52;3.00;;;1.30;;
65035;SDS011;51603;49.300;8.880;2024-03-23T08:21:17;5.00;;;1.23;;
65035;SDS011;51603;49.300;8.880;2024-03-23T08:23:43;4.43;;;1.67;;
65035;SDS011;51603;49.300;8.880;2024-03-23T08:26:09;2.40;;;1.50;;
65035;SDS011;51603;49.300;8.880;2024-03-23T08:28:36;4.00;;;1.30;;
65035;SDS011;51603;49.300;8.880;2024-03-23T08:31:07;4.33;;;1.50;;
65035;SDS011;51603;49.300;8.880;2024-03-23T08:33:34;6.73;;;2.70;;
65035;SDS011;51603;49.300;8.880;2024-03-23T08:36:03;5.93;;;4.00;;
65035;SDS011;51603;49.300;8.880;2024-03-23T08:38:30;3.30;;;1.60;;
65035;SDS011;51603;49.300;8.880;2024-03-23T08:41:03;3.70;;;1.67;;
65035;SDS011;51603;49.300;8.880;2024-03-23T08:43:30;3.70;;;2.10;;
65035;SDS011;51603;49.300;8.880;2024-03-23T08:46:10;4.43;;;2.10;;
65035;SDS011;51603;49.300;8.880;2024-03-23T08:48:40;6.80;;;1.93;;
65035;SDS011;51603;49.300;8.880;2024-03-23T08:51:09;5.33;;;2.10;;
65035;SDS011;51603;49.300;8.880;2024-03-23T08:53:35;3.13;;;2.47;;
65035;SDS011;51603;49.300;8.880;2024-03-23T08:56:01;4.87;;;2.67;;
65035;SDS011;51603;49.300;8.880;2024-03-23T08:58:28;3.93;;;2.30;;
65035;SDS011;51603;49.300;8.880;2024-03-23T09:00:55;8.13;;;3.87;;
65035;SDS011;51603;49.300;8.880;2024-03-23T09:03:24;4.57;;;2.40;;
65035;SDS011;51603;49.300;8.880;2024-03-23T09:05:51;5.13;;;2.87;;
65035;SDS011;51603;49.300;8.880;2024-03-23T09:08:17;7.13;;;2.30;;
65035;SDS011;51603;49.300;8.880;2024-03-23T09:10:43;7.73;;;2.80;;
65035;SDS011;51603;49.300;8.880;2024-03-23T09:13:09;5.57;;;2.83;;
65035;SDS011;51603;49.300;8.880;2024-03-23T09:15:35;5.43;;;2.37;;
65035;SDS011;51603;49.300;8.880;2024-03-23T09:18:01;6.10;;;2.80;;
65035;SDS011;51603;49.300;8.880;2024-03-23T09:20:27;5.57;;;2.50;;
65035;SDS011;51603;49.300;8.880;2024-03-23T09:22:53;4.70;;;2.53;;
65035;SDS011;51603;49.300;8.880;2024-03-23T09:25:18;8.00;;;4.33;;
65035;SDS011;51603;49.300;8.880;2024-03-23T09:27:47;6.83;;;2.63;;
65035;SDS011;51603;49.300;8.880;2024-03-23T09:30:13;5.23;;;2.40;;
65035;SDS011;51603;49.300;8.880;2024-03-23T09:32:39;7.17;;;2.40;;
65035;SDS011;51603;49.300;8.880;2024-03-23T09:35:06;4.87;;;2.03;;
65035;SDS011;51603;49.300;8.880;2024-03-23T09:37:32;6.37;;;2.47;;
65035;SDS011;51603;49.300;8.880;2024-03-23T09:39:57;7.70;;;2.50;;
65035;SDS011;51603;49.300;8.880;2024-03-23T09:42:23;7.20;;;3.00;;
65035;SDS011;51603;49.300;8.880;2024-03-23T09:44:49;5.87;;;2.93;;
65035;SDS011;51603;49.300;8.880;2024-03-23T09:47:16;6.63;;;3.10;;
65035;SDS011;51603;49.300;8.880;2024-03-23T09:49:42;6.40;;;2.80;;
65035;SDS011;51603;49.300;8.880;2024-03-23T09:52:08;4.13;;;2.90;;
65035;SDS011;51603;49.300;8.880;2024-03-23T09:54:33;6.33;;;3.40;;
65035;SDS011;51603;49.300;8.880;2024-03-23T09:56:59;7.73;;;2.93;;
65035;SDS011;51603;49.300;8.880;2024-03-23T09:59:24;6.93;;;2.80;;
65035;SDS011;51603;49.300;8.880;2024-03-23T10:01:51;5.83;;;2.77;;
65035;SDS011;51603;49.300;8.880;2024-03-23T10:04:37;7.00;;;2.83;;
65035;SDS011;51603;49.300;8.880;2024-03-23T10:07:12;4.60;;;2.40;;
65035;SDS011;51603;49.300;8.880;2024-03-23T10:09:39;6.63;;;3.07;;
65035;SDS011;51603;49.300;8.880;2024-03-23T10:12:12;5.37;;;2.30;;
65035;SDS011;51603;49.300;8.880;2024-03-23T10:14:41;3.90;;;2.23;;
65035;SDS011;51603;49.300;8.880;2024-03-23T10:17:17;8.47;;;3.50;;
65035;SDS011;51603;49.300;8.880;2024-03-23T10:19:48;5.43;;;2.50;;
65035;SDS011;51603;49.300;8.880;2024-03-23T10:22:16;7.30;;;3.20;;
65035;SDS011;51603;49.300;8.880;2024-03-23T10:24:44;9.07;;;2.90;;
65035;SDS011;51603;49.300;8.880;2024-03-23T10:27:14;9.10;;;3.10;;
65035;SDS011;51603;49.300;8.880;2024-03-23T10:29:41;4.60;;;2.50;;
65035;SDS011;51603;49.300;8.880;2024-03-23T10:32:07;11.50;;;3.50;;
65035;SDS011;51603;49.300;8.880;2024-03-23T10:34:34;7.10;;;3.00;;
65035;SDS011;51603;49.300;8.880;2024-03-23T10:37:01;4.27;;;2.80;;
65035;SDS011;51603;49.300;8.880;2024-03-23T10:39:29;4.70;;;2.83;;
65035;SDS011;51603;49.300;8.880;2024-03-23T10:41:57;8.20;;;3.10;;
65035;SDS011;51603;49.300;8.880;2024-03-23T10:44:23;4.37;;;2.33;;
65035;SDS011;51603;49.300;8.880;2024-03-23T10:46:51;8.87;;;3.87;;
65035;SDS011;51603;49.300;8.880;2024-03-23T10:49:23;11.03;;;3.07;;
65035;SDS011;51603;49.300;8.880;2024-03-23T10:51:50;5.40;;;2.33;;
65035;SDS011;51603;49.300;8.880;2024-03-23T10:54:16;8.33;;;3.10;;
65035;SDS011;51603;49.300;8.880;2024-03-23T10:56:43;10.30;;;3.10;;
65035;SDS011;51603;49.300;8.880;2024-03-23T10:59:09;6.10;;;2.50;;
65035;SDS011;51603;49.300;8.880;2024-03-23T11:01:35;5.27;;;2.37;;
65035;SDS011;51603;49.300;8.880;2024-03-23T11:04:29;8.60;;;3.30;;
65035;SDS011;51603;49.300;8.880;2024-03-23T11:06:58;6.67;;;2.70;;
65035;SDS011;51603;49.300;8.880;2024-03-23T11:09:42;4.43;;;2.63;;
65035;SDS011;51603;49.300;8.880;2024-03-23T11:12:17;5.00;;;2.83;;
65035;SDS011;51603;49.300;8.880;2024-03-23T11:15:13;7.73;;;2.70;;
65035;SDS011;51603;49.300;8.880;2024-03-23T11:17:39;8.60;;;3.87;;
65035;SDS011;51603;49.300;8.880;2024-03-23T11:20:06;8.03;;;2.60;;
65035;SDS011;51603;49.300;8.880;2024-03-23T11:25:12;8.33;;;3.43;;
65035;SDS011;51603;49.300;8.880;2024-03-23T11:27:41;7.37;;;2.97;;
65035;SDS011;51603;49.300;8.880;2024-03-23T11:30:10;5.47;;;3.40;;
65035;SDS011;51603;49.300;8.880;2024-03-23T11:32:44;9.43;;;2.63;;
65035;SDS011;51603;49.300;8.880;2024-03-23T11:35:56;7.97;;;2.40;;
65035;SDS011;51603;49.300;8.880;2024-03-23T11:38:16;7.53;;;3.20;;
65035;SDS011;51603;49.300;8.880;2024-03-23T11:40:47;6.70;;;2.93;;
65035;SDS011;51603;49.300;8.880;2024-03-23T11:43:16;12.03;;;3.60;;
65035;SDS011;51603;49.300;8.880;2024-03-23T11:45:47;7.60;;;3.10;;
65035;SDS011;51603;49.300;8.880;2024-03-23T11:48:17;5.67;;;2.60;;
65035;SDS011;51603;49.300;8.880;2024-03-23T11:50:45;7.70;;;2.73;;
65035;SDS011;51603;49.300;8.880;2024-03-23T11:53:21;6.90;;;3.90;;
65035;SDS011;51603;49.300;8.880;2024-03-23T11:55:49;11.43;;;3.23;;
65035;SDS011;51603;49.300;8.880;2024-03-23T11:58:34;4.83;;;2.40;;
65035;SDS011;51603;49.300;8.880;2024-03-23T12:01:00;5.83;;;2.70;;
65035;SDS011;51603;49.300;8.880;2024-03-23T12:03:29;7.80;;;2.50;;
65035;SDS011;51603;49.300;8.880;2024-03-23T12:05:55;4.17;;;2.00;;
65035;SDS011;51603;49.300;8.880;2024-03-23T12:08:24;8.00;;;3.07;;
65035;SDS011;51603;49.300;8.880;2024-03-23T12:11:09;11.00;;;4.10;;
65035;SDS011;51603;49.300;8.880;2024-03-23T12:13:40;7.37;;;3.47;;
65035;SDS011;51603;49.300;8.880;2024-03-23T12:16:08;9.77;;;2.90;;
65035;SDS011;51603;49.300;8.880;2024-03-23T12:18:39;6.37;;;2.43;;
65035;SDS011;51603;49.300;8.880;2024-03-23T12:21:06;5.27;;;2.00;;
65035;SDS011;51603;49.300;8.880;2024-03-23T12:23:32;6.63;;;2.60;;
65035;SDS011;51603;49.300;8.880;2024-03-23T12:25:58;3.83;;;2.10;;
65035;SDS011;51603;49.300;8.880;2024-03-23T12:28:23;5.97;;;2.00;;
65035;SDS011;51603;49.300;8.880;2024-03-23T12:30:50;6.23;;;2.27;;
65035;SDS011;51603;49.300;8.880;2024-03-23T12:33:17;7.60;;;2.60;;
65035;SDS011;51603;49.300;8.880;2024-03-23T12:35:42;4.50;;;2.43;;
65035;SDS011;51603;49.300;8.880;2024-03-23T12:38:08;3.93;;;2.43;;
65035;SDS011;51603;49.300;8.880;2024-03-23T12:40:33;3.50;;;2.00;;
65035;SDS011;51603;49.300;8.880;2024-03-23T12:42:59;4.77;;;2.40;;
65035;SDS011;51603;49.300;8.880;2024-03-23T12:45:24;7.10;;;3.10;;
65035;SDS011;51603;49.300;8.880;2024-03-23T12:47:50;5.13;;;3.53;;
65035;SDS011;51603;49.300;8.880;2024-03-23T12:50:18;3.60;;;2.20;;
65035;SDS011;51603;49.300;8.880;2024-03-23T12:52:44;7.73;;;3.03;;
65035;SDS011;51603;49.300;8.880;2024-03-23T12:55:09;2.80;;;2.30;;
65035;SDS011;51603;49.300;8.880;2024-03-23T12:57:35;5.20;;;2.60;;
65035;SDS011;51603;49.300;8.880;2024-03-23T13:00:01;8.97;;;2.50;;
65035;SDS011;51603;49.300;8.880;2024-03-23T13:02:28;5.70;;;2.13;;
65035;SDS011;51603;49.300;8.880;2024-03-23T13:04:54;6.50;;;2.57;;
65035;SDS011;51603;49.300;8.880;2024-03-23T13:07:20;4.20;;;2.60;;
65035;SDS011;51603;49.300;8.880;2024-03-23T13:09:46;8.00;;;3.00;;
65035;SDS011;51603;49.300;8.880;2024-03-23T13:12:12;5.33;;;2.50;;
65035;SDS011;51603;49.300;8.880;2024-03-23T13:14:38;3.70;;;2.50;;
65035;SDS011;51603;49.300;8.880;2024-03-23T13:17:04;5.60;;;2.20;;
65035;SDS011;51603;49.300;8.880;2024-03-23T13:19:30;5.30;;;2.40;;
65035;SDS011;51603;49.300;8.880;2024-03-23T13:21:58;5.80;;;2.50;;
65035;SDS011;51603;49.300;8.880;2024-03-23T13:24:28;8.27;;;2.57;;
65035;SDS011;51603;49.300;8.880;2024-03-23T13:26:54;7.40;;;2.27;;
65035;SDS011;51603;49.300;8.880;2024-03-23T13:29:20;6.33;;;1.87;;
65035;SDS011;51603;49.300;8.880;2024-03-23T13:31:47;3.00;;;2.03;;
65035;SDS011;51603;49.300;8.880;2024-03-23T13:34:13;5.27;;;1.53;;
65035;SDS011;51603;49.300;8.880;2024-03-23T13:36:42;3.40;;;1.40;;
65035;SDS011;51603;49.300;8.880;2024-03-23T13:39:09;5.70;;;1.50;;
65035;SDS011;51603;49.300;8.880;2024-03-23T13:41:38;2.83;;;0.90;;
65035;SDS011;51603;49.300;8.880;2024-03-23T13:44:08;3.20;;;1.30;;
65035;SDS011;51603;49.300;8.880;2024-03-23T13:46:37;1.57;;;0.73;;
65035;SDS011;51603;49.300;8.880;2024-03-23T13:49:04;2.60;;;1.00;;
65035;SDS011;51603;49.300;8.880;2024-03-23T13:51:30;2.17;;;1.00;;
65035;SDS011;51603;49.300;8.880;2024-03-23T13:53:56;3.13;;;1.43;;
65035;SDS011;51603;49.300;8.880;2024-03-23T13:56:25;3.63;;;1.03;;
65035;SDS011;51603;49.300;8.880;2024-03-23T13:58:50;4.40;;;1.13;;
65035;SDS011;51603;49.300;8.880;2024-03-23T14:01:16;4.17;;;1.27;;
65035;SDS011;51603;49.300;8.880;2024-03-23T14:03:42;1.63;;;1.20;;
65035;SDS011;51603;49.300;8.880;2024-03-23T14:06:09;3.20;;;1.10;;
65035;SDS011;51603;49.300;8.880;2024-03-23T14:08:35;4.40;;;1.07;;
65035;SDS011;51603;49.300;8.880;2024-03-23T14:11:04;3.43;;;1.50;;
65035;SDS011;51603;49.300;8.880;2024-03-23T14:13:30;2.10;;;0.97;;
65035;SDS011;51603;49.300;8.880;2024-03-23T14:15:56;2.60;;;1.20;;
65035;SDS011;51603;49.300;8.880;2024-03-23T14:18:21;2.60;;;1.03;;
65035;SDS011;51603;49.300;8.880;2024-03-23T14:20:48;1.63;;;0.87;;
65035;SDS011;51603;49.300;8.880;2024-03-23T14:23:14;4.30;;;1.50;;
65035;SDS011;51603;49.300;8.880;2024-03-23T14:25:39;2.17;;;1.00;;
65035;SDS011;51603;49.300;8.880;2024-03-23T14:28:05;1.57;;;0.70;;
65035;SDS011;51603;49.300;8.880;2024-03-23T14:30:31;2.13;;;0.90;;
65035;SDS011;51603;49.300;8.880;2024-03-23T14:32:56;1.20;;;0.63;;
65035;SDS011;51603;49.300;8.880;2024-03-23T14:35:22;2.90;;;0.90;;
65035;SDS011;51603;49.300;8.880;2024-03-23T14:37:48;5.93;;;1.03;;
65035;SDS011;51603;49.300;8.880;2024-03-23T14:40:14;3.37;;;1.87;;
65035;SDS011;51603;49.300;8.880;2024-03-23T14:42:39;1.70;;;0.90;;
65035;SDS011;51603;49.300;8.880;2024-03-23T14:45:06;1.90;;;0.70;;
65035;SDS011;51603;49.300;8.880;2024-03-23T14:47:32;2.20;;;0.80;;
65035;SDS011;51603;49.300;8.880;2024-03-23T14:49:57;2.20;;;0.70;;
65035;SDS011;51603;49.300;8.880;2024-03-23T14:52:23;2.20;;;0.87;;
65035;SDS011;51603;49.300;8.880;2024-03-23T14:54:49;2.07;;;0.80;;
65035;SDS011;51603;49.300;8.880;2024-03-23T14:57:14;2.80;;;0.80;;
65035;SDS011;51603;49.300;8.880;2024-03-23T14:59:40;3.43;;;2.13;;
65035;SDS011;51603;49.300;8.880;2024-03-23T15:02:06;4.77;;;1.10;;
65035;SDS011;51603;49.300;8.880;2024-03-23T15:04:32;5.07;;;0.80;;
65035;SDS011;51603;49.300;8.880;2024-03-23T15:06:58;2.37;;;1.00;;
65035;SDS011;51603;49.300;8.880;2024-03-23T15:09:23;2.33;;;0.80;;
65035;SDS011;51603;49.300;8.880;2024-03-23T15:11:49;5.80;;;1.17;;
65035;SDS011;51603;49.300;8.880;2024-03-23T15:14:14;5.10;;;1.30;;
65035;SDS011;51603;49.300;8.880;2024-03-23T15:16:40;3.50;;;1.37;;
65035;SDS011;51603;49.300;8.880;2024-03-23T15:19:07;3.00;;;1.23;;
65035;SDS011;51603;49.300;8.880;2024-03-23T15:21:33;6.67;;;1.23;;
65035;SDS011;51603;49.300;8.880;2024-03-23T15:23:58;5.10;;;1.30;;
65035;SDS011;51603;49.300;8.880;2024-03-23T15:26:24;3.10;;;1.30;;
65035;SDS011;51603;49.300;8.880;2024-03-23T15:28:49;5.37;;;1.03;;
65035;SDS011;51603;49.300;8.880;2024-03-23T15:31:24;5.17;;;1.17;;
65035;SDS011;51603;49.300;8.880;2024-03-23T15:33:50;5.27;;;1.23;;
65035;SDS011;51603;49.300;8.880;2024-03-23T15:36:16;4.07;;;1.20;;